createdAt,value
2022-07-29T00:01:03.679Z,23.32
2022-07-29T00:03:31.203Z,23.35
2022-07-29T00:05:58.460Z,23.37
2022-07-29T00:08:25.453Z,23.32
2022-07-29T00:10:52.867Z,23.31
2022-07-29T00:13:32.402Z,23.26
2022-07-29T00:16:04.558Z,23.20
2022-07-29T00:18:32.967Z,23.17
2022-07-29T00:21:00.521Z,23.14
2022-07-29T00:23:27.904Z,23.09
2022-07-29T00:25:54.940Z,23.08
2022-07-29T00:28:22.275Z,23.02
2022-07-29T00:30:49.290Z,22.99
2022-07-29T00:33:16.309Z,22.95
2022-07-29T00:35:46.362Z,22.94
2022-07-29T00:38:19.361Z,22.90
2022-07-29T00:40:47.275Z,22.88
2022-07-29T00:43:15.396Z,22.86
2022-07-29T00:45:56.918Z,22.78
2022-07-29T00:48:24.280Z,22.79
2022-07-29T00:50:52.898Z,22.81
2022-07-29T00:53:21.383Z,22.77
2022-07-29T00:55:50.406Z,22.77
2022-07-29T00:58:19.350Z,22.76
2022-07-29T01:00:46.385Z,22.75
2022-07-29T01:03:13.859Z,22.74
2022-07-29T01:05:51.590Z,22.71
2022-07-29T01:08:20.089Z,22.71
2022-07-29T01:10:48.074Z,22.68
2022-07-29T01:13:17.373Z,22.66
2022-07-29T01:15:50.458Z,22.68
2022-07-29T01:18:37.137Z,22.60
2022-07-29T01:21:42.360Z,22.57
2022-07-29T01:24:46.227Z,22.53
2022-07-29T01:27:33.704Z,22.54
2022-07-29T01:30:02.244Z,22.62
2022-07-29T01:32:37.084Z,22.58
2022-07-29T01:35:06.669Z,22.63
2022-07-29T01:37:44.663Z,22.55
2022-07-29T01:40:28.350Z,22.52
2022-07-29T01:42:59.106Z,22.58
2022-07-29T01:45:57.563Z,22.49
2022-07-29T01:48:33.049Z,22.53
2022-07-29T01:51:08.750Z,22.50
2022-07-29T01:54:00.572Z,22.50
2022-07-29T01:56:32.148Z,22.53
2022-07-29T01:59:01.992Z,22.54
2022-07-29T02:01:30.935Z,22.52
2022-07-29T02:04:00.394Z,22.49
2022-07-29T02:06:28.800Z,22.50
2022-07-29T02:08:57.332Z,22.49
2022-07-29T02:11:25.089Z,22.53
2022-07-29T02:13:54.633Z,22.55
2022-07-29T02:16:25.091Z,22.53
2022-07-29T02:18:56.769Z,22.49
2022-07-29T02:21:27.890Z,22.47
2022-07-29T02:23:58.748Z,22.49
2022-07-29T02:26:26.907Z,22.51
2022-07-29T02:28:58.248Z,22.46
2022-07-29T02:31:34.898Z,22.49
2022-07-29T02:34:06.061Z,22.51
2022-07-29T02:36:34.165Z,22.54
2022-07-29T02:39:03.094Z,22.50
2022-07-29T02:42:02.758Z,22.35
2022-07-29T02:44:34.260Z,22.48
2022-07-29T02:47:30.907Z,22.38
2022-07-29T02:50:16.529Z,22.41
2022-07-29T02:52:56.640Z,22.40
2022-07-29T02:55:49.865Z,22.37
2022-07-29T02:58:39.225Z,22.31
2022-07-29T03:01:20.975Z,22.38
2022-07-29T03:03:51.878Z,22.40
2022-07-29T03:06:31.128Z,22.45
2022-07-29T03:09:13.538Z,22.43
2022-07-29T03:11:50.191Z,22.45
2022-07-29T03:14:21.830Z,22.39
2022-07-29T03:16:49.222Z,22.41
2022-07-29T03:19:17.383Z,22.39
2022-07-29T03:21:44.839Z,22.40
2022-07-29T03:24:11.771Z,22.37
2022-07-29T03:26:38.794Z,22.36
2022-07-29T03:29:06.019Z,22.37
2022-07-29T03:31:34.029Z,22.36
2022-07-29T03:34:01.538Z,22.37
2022-07-29T03:36:28.774Z,22.37
2022-07-29T03:38:55.973Z,22.39
2022-07-29T03:41:25.437Z,22.36
2022-07-29T03:43:54.733Z,22.40
2022-07-29T03:46:25.032Z,22.40
2022-07-29T03:48:58.661Z,22.41
2022-07-29T03:51:33.085Z,22.46
2022-07-29T03:54:14.067Z,22.48
2022-07-29T03:56:48.511Z,22.44
2022-07-29T03:59:17.905Z,22.47
2022-07-29T04:01:45.670Z,22.52
2022-07-29T04:04:13.114Z,22.57
2022-07-29T04:06:42.293Z,22.55
2022-07-29T04:09:10.230Z,22.59
2022-07-29T04:12:02.244Z,22.61
2022-07-29T04:14:27.052Z,22.64
2022-07-29T04:16:54.161Z,22.70
2022-07-29T04:19:22.245Z,22.76
2022-07-29T04:21:49.723Z,22.82
2022-07-29T04:24:17.542Z,22.82
2022-07-29T04:26:46.171Z,22.86
2022-07-29T04:29:15.196Z,22.88
2022-07-29T04:31:45.526Z,22.91
2022-07-29T04:34:14.523Z,22.96
2022-07-29T04:36:41.717Z,23.01
2022-07-29T04:39:08.672Z,23.07
2022-07-29T04:41:36.091Z,23.14
2022-07-29T04:44:12.226Z,23.20
2022-07-29T04:46:39.815Z,23.23
2022-07-29T04:49:06.893Z,23.36
2022-07-29T04:51:35.437Z,23.37
2022-07-29T04:54:05.744Z,23.43
2022-07-29T04:56:34.880Z,23.52
2022-07-29T04:59:04.912Z,23.63
2022-07-29T05:01:36.711Z,23.71
2022-07-29T05:04:04.235Z,23.82
2022-07-29T05:06:31.559Z,23.91
2022-07-29T05:08:59.106Z,23.99
2022-07-29T05:11:30.082Z,24.07
2022-07-29T05:13:57.424Z,24.17
2022-07-29T05:16:24.738Z,24.17
2022-07-29T05:18:52.135Z,24.35
2022-07-29T05:21:19.097Z,24.49
2022-07-29T05:23:46.339Z,24.52
2022-07-29T05:26:13.273Z,25.05
2022-07-29T05:28:40.187Z,26.77
2022-07-29T05:31:07.513Z,28.62
2022-07-29T05:33:37.048Z,30.09
2022-07-29T05:36:08.636Z,31.00
2022-07-29T05:38:37.349Z,31.44
2022-07-29T05:41:06.299Z,32.10
2022-07-29T05:43:33.971Z,32.35
2022-07-29T05:46:01.815Z,33.01
2022-07-29T05:48:29.321Z,33.45
2022-07-29T05:51:00.792Z,33.99
2022-07-29T05:53:29.725Z,34.55
2022-07-29T05:55:56.706Z,35.28
2022-07-29T05:58:26.612Z,35.74
2022-07-29T06:00:53.977Z,36.39
2022-07-29T06:03:21.993Z,36.97
2022-07-29T06:05:49.196Z,36.99
2022-07-29T06:08:16.619Z,37.14
2022-07-29T06:10:43.964Z,37.32
2022-07-29T06:13:11.360Z,37.31
2022-07-29T06:15:38.686Z,37.30
2022-07-29T06:18:10.131Z,37.24
2022-07-29T06:20:39.021Z,37.00
2022-07-29T06:23:07.128Z,37.15
2022-07-29T06:25:36.528Z,36.88
2022-07-29T06:28:05.007Z,36.59
2022-07-29T06:30:32.769Z,35.82
2022-07-29T06:33:01.566Z,35.76
2022-07-29T06:35:39.278Z,35.85
2022-07-29T06:38:30.153Z,35.92
2022-07-29T06:41:01.611Z,36.12
2022-07-29T06:43:50.096Z,36.58
2022-07-29T06:46:20.816Z,37.17
2022-07-29T06:48:50.012Z,37.58
2022-07-29T06:51:22.359Z,37.86
2022-07-29T06:54:00.003Z,37.41
2022-07-29T06:56:42.657Z,37.11
2022-07-29T06:59:11.055Z,36.78
2022-07-29T07:01:39.534Z,37.17
2022-07-29T07:04:09.883Z,37.74
2022-07-29T07:06:40.082Z,37.02
2022-07-29T07:09:08.775Z,36.78
2022-07-29T07:11:36.005Z,36.17
2022-07-29T07:14:04.440Z,35.51
2022-07-29T07:16:32.397Z,34.79
2022-07-29T07:18:59.651Z,34.88
2022-07-29T07:21:30.187Z,35.24
2022-07-29T07:23:57.989Z,35.64
2022-07-29T07:26:25.083Z,36.04
2022-07-29T07:28:52.477Z,36.43
2022-07-29T07:31:19.751Z,36.98
2022-07-29T07:33:47.798Z,36.99
2022-07-29T07:36:15.196Z,36.95
2022-07-29T07:38:42.188Z,36.79
2022-07-29T07:41:09.613Z,36.68
2022-07-29T07:43:37.020Z,36.23
2022-07-29T07:46:04.081Z,35.36
2022-07-29T07:48:31.213Z,35.32
2022-07-29T07:50:59.668Z,36.14
2022-07-29T07:53:28.162Z,36.50
2022-07-29T07:56:12.470Z,36.45
2022-07-29T07:58:42.225Z,36.56
2022-07-29T08:01:10.458Z,36.21
2022-07-29T08:03:38.086Z,36.13
2022-07-29T08:06:06.424Z,35.88
2022-07-29T08:08:33.483Z,35.62
2022-07-29T08:11:08.734Z,35.68
2022-07-29T08:13:38.075Z,35.73
2022-07-29T08:16:16.273Z,35.60
2022-07-29T08:18:45.728Z,35.28
2022-07-29T08:21:15.621Z,35.12
2022-07-29T08:23:58.943Z,34.85
2022-07-29T08:26:43.972Z,34.31
2022-07-29T08:29:12.018Z,34.00
2022-07-29T08:31:41.306Z,33.95
2022-07-29T08:34:14.424Z,34.23
2022-07-29T08:36:42.101Z,34.42
2022-07-29T08:39:13.235Z,34.60
2022-07-29T08:41:44.616Z,34.54
2022-07-29T08:44:30.537Z,34.16
2022-07-29T08:46:58.672Z,34.31
2022-07-29T08:49:28.979Z,34.74
2022-07-29T08:51:58.564Z,35.28
2022-07-29T08:54:26.056Z,35.62
2022-07-29T08:56:55.767Z,35.95
2022-07-29T08:59:28.335Z,36.16
2022-07-29T09:02:02.254Z,36.41
2022-07-29T09:04:37.014Z,36.50
2022-07-29T09:07:07.078Z,36.76
2022-07-29T09:09:35.375Z,36.74
2022-07-29T09:12:05.083Z,36.66
2022-07-29T09:14:33.473Z,36.44
2022-07-29T09:17:01.328Z,35.92
2022-07-29T09:19:53.541Z,35.56
2022-07-29T09:22:29.870Z,34.80
2022-07-29T09:24:56.959Z,35.30
2022-07-29T09:27:27.663Z,35.43
2022-07-29T09:30:03.809Z,35.46
2022-07-29T09:32:32.731Z,35.44
2022-07-29T09:35:23.349Z,35.12
2022-07-29T09:37:54.306Z,35.04
2022-07-29T09:40:24.757Z,34.86
2022-07-29T09:42:54.286Z,34.78
2022-07-29T09:45:38.340Z,34.53
2022-07-29T09:48:20.086Z,34.45
2022-07-29T09:50:52.201Z,34.60
2022-07-29T09:53:33.836Z,34.64
2022-07-29T09:56:03.239Z,35.20
2022-07-29T09:58:31.546Z,35.77
2022-07-29T10:01:00.467Z,36.10
2022-07-29T10:03:27.708Z,36.30
2022-07-29T10:06:14.522Z,36.59
2022-07-29T10:08:46.358Z,37.06
2022-07-29T10:11:16.447Z,37.16
2022-07-29T10:13:49.226Z,37.22
2022-07-29T10:16:17.578Z,37.04
2022-07-29T10:18:45.274Z,36.90
2022-07-29T10:21:34.824Z,36.65
2022-07-29T10:24:01.612Z,36.28
2022-07-29T10:26:33.221Z,36.00
2022-07-29T10:29:02.701Z,35.87
2022-07-29T10:31:43.594Z,35.46
2022-07-29T10:34:35.816Z,35.13
2022-07-29T10:37:21.235Z,34.97
2022-07-29T10:40:27.017Z,34.80
2022-07-29T10:43:00.590Z,34.55
2022-07-29T10:45:32.927Z,34.11
2022-07-29T10:48:10.328Z,33.88
2022-07-29T10:51:04.343Z,33.67
2022-07-29T10:53:53.695Z,33.58
2022-07-29T10:56:29.212Z,33.70
2022-07-29T10:59:22.834Z,33.56
2022-07-29T11:01:53.518Z,33.53
2022-07-29T11:04:47.292Z,33.23
2022-07-29T11:07:18.349Z,33.28
2022-07-29T11:10:05.857Z,33.40
2022-07-29T11:12:39.999Z,33.52
2022-07-29T11:15:10.492Z,33.58
2022-07-29T11:17:53.995Z,33.59
2022-07-29T11:20:49.692Z,33.63
2022-07-29T11:23:33.664Z,33.72
2022-07-29T11:26:24.906Z,33.82
2022-07-29T11:29:20.344Z,33.89
2022-07-29T11:31:56.065Z,34.21
2022-07-29T11:34:38.097Z,34.18
2022-07-29T11:37:12.474Z,34.16
2022-07-29T11:39:55.814Z,34.12
2022-07-29T11:42:32.435Z,34.22
2022-07-29T11:45:44.610Z,34.17
2022-07-29T11:48:28.693Z,33.53
2022-07-29T11:50:58.695Z,33.82
2022-07-29T11:53:29.167Z,33.75
2022-07-29T11:56:03.850Z,33.74
2022-07-29T11:58:33.244Z,33.89
2022-07-29T12:04:06.891Z,34.16
2022-07-29T12:06:39.519Z,34.38
2022-07-29T12:09:11.191Z,34.39
2022-07-29T12:11:42.163Z,34.42
2022-07-29T12:14:26.121Z,34.19
2022-07-29T12:16:54.583Z,33.76
2022-07-29T12:22:05.718Z,34.21
2022-07-29T12:24:45.389Z,34.12
2022-07-29T12:27:18.410Z,34.43
2022-07-29T12:29:48.053Z,34.57
2022-07-29T12:32:19.786Z,34.65
2022-07-29T12:34:48.615Z,34.55
2022-07-29T12:37:19.496Z,34.46
2022-07-29T12:39:58.645Z,34.49
2022-07-29T12:42:29.050Z,34.47
2022-07-29T12:44:57.310Z,34.34
2022-07-29T12:47:30.970Z,34.25
2022-07-29T12:50:25.909Z,34.05
2022-07-29T12:52:54.319Z,34.09
2022-07-29T12:55:50.078Z,33.78
2022-07-29T12:58:39.176Z,33.81
2022-07-29T13:01:18.641Z,33.90
2022-07-29T13:03:59.790Z,34.03
2022-07-29T13:06:35.630Z,34.05
2022-07-29T13:09:12.002Z,34.26
2022-07-29T13:11:53.556Z,34.27
2022-07-29T13:14:38.408Z,34.13
2022-07-29T13:17:16.825Z,34.12
2022-07-29T13:19:51.147Z,34.13
2022-07-29T13:22:23.914Z,34.18
2022-07-29T13:25:07.681Z,34.20
2022-07-29T13:27:37.668Z,34.35
2022-07-29T13:30:08.448Z,34.42
2022-07-29T13:32:38.734Z,34.41
2022-07-29T13:35:09.644Z,34.40
2022-07-29T13:37:39.469Z,34.42
2022-07-29T13:40:11.748Z,34.34
2022-07-29T13:42:39.280Z,34.29
2022-07-29T13:45:10.559Z,34.27
2022-07-29T13:47:47.696Z,34.22
2022-07-29T13:50:16.659Z,34.11
2022-07-29T13:52:44.555Z,34.03
2022-07-29T13:55:13.301Z,33.92
2022-07-29T13:57:40.937Z,33.86
2022-07-29T14:00:09.872Z,33.76
2022-07-29T14:02:37.127Z,33.61
2022-07-29T14:05:08.294Z,33.46
2022-07-29T14:07:36.546Z,32.88
2022-07-29T14:10:04.623Z,33.04
2022-07-29T14:12:32.976Z,32.92
2022-07-29T14:15:00.684Z,32.77
2022-07-29T14:17:27.900Z,32.75
2022-07-29T14:19:57.172Z,32.81
2022-07-29T14:22:26.269Z,32.86
2022-07-29T14:24:56.041Z,32.95
2022-07-29T14:27:37.558Z,33.04
2022-07-29T14:30:07.198Z,33.09
2022-07-29T14:32:35.280Z,33.10
2022-07-29T14:35:02.419Z,33.06
2022-07-29T14:37:40.319Z,33.08
2022-07-29T14:40:08.544Z,33.02
2022-07-29T14:42:35.917Z,33.09
2022-07-29T14:45:09.489Z,33.10
2022-07-29T14:47:39.053Z,33.14
2022-07-29T14:50:08.667Z,33.08
2022-07-29T14:52:36.027Z,32.93
2022-07-29T14:55:04.894Z,32.87
2022-07-29T14:57:32.920Z,32.86
2022-07-29T15:00:00.191Z,32.89
2022-07-29T15:02:52.293Z,32.89
2022-07-29T15:05:16.615Z,32.82
2022-07-29T15:07:44.395Z,32.61
2022-07-29T15:10:11.890Z,32.39
2022-07-29T15:12:46.383Z,32.22
2022-07-29T15:15:14.885Z,31.97
2022-07-29T15:17:43.906Z,31.55
2022-07-29T15:20:12.790Z,31.13
2022-07-29T15:22:41.022Z,30.90
2022-07-29T15:25:09.507Z,30.63
2022-07-29T15:27:39.721Z,30.21
2022-07-29T15:30:07.373Z,29.62
2022-07-29T15:32:34.507Z,29.11
2022-07-29T15:35:01.812Z,28.88
2022-07-29T15:37:48.345Z,28.64
2022-07-29T15:40:17.594Z,28.11
2022-07-29T15:42:44.852Z,27.97
2022-07-29T15:45:12.253Z,27.83
2022-07-29T15:47:41.006Z,27.53
2022-07-29T15:50:15.426Z,27.16
2022-07-29T15:52:43.670Z,27.03
2022-07-29T15:55:14.805Z,27.08
2022-07-29T15:57:43.858Z,26.66
2022-07-29T16:00:21.477Z,26.85
2022-07-29T16:02:49.796Z,26.76
2022-07-29T16:05:19.801Z,26.66
2022-07-29T16:07:48.794Z,26.34
2022-07-29T16:10:16.077Z,26.09
2022-07-29T16:12:45.381Z,25.96
2022-07-29T16:15:19.969Z,25.89
2022-07-29T16:17:50.964Z,25.88
2022-07-29T16:20:20.924Z,25.93
2022-07-29T16:22:50.186Z,26.06
2022-07-29T16:25:17.416Z,26.15
2022-07-29T16:27:48.726Z,26.18
2022-07-29T16:30:16.499Z,26.24
2022-07-29T16:32:43.517Z,26.22
2022-07-29T16:35:11.088Z,26.28
2022-07-29T16:37:38.411Z,26.43
2022-07-29T16:40:07.050Z,26.59
2022-07-29T16:42:46.675Z,26.71
2022-07-29T16:45:21.196Z,26.78
2022-07-29T16:47:49.202Z,26.82
2022-07-29T16:50:17.984Z,26.89
2022-07-29T16:52:45.057Z,27.03
2022-07-29T16:55:13.473Z,27.16
2022-07-29T16:57:42.344Z,27.28
2022-07-29T17:00:09.955Z,27.38
2022-07-29T17:02:38.953Z,27.45
2022-07-29T17:05:10.661Z,27.45
2022-07-29T17:07:39.093Z,27.52
2022-07-29T17:10:09.839Z,27.57
2022-07-29T17:12:40.990Z,27.24
2022-07-29T17:15:12.538Z,27.48
2022-07-29T17:17:55.097Z,27.47
2022-07-29T17:20:23.600Z,27.49
2022-07-29T17:22:50.950Z,27.46
2022-07-29T17:25:20.837Z,27.42
2022-07-29T17:27:50.963Z,27.41
2022-07-29T17:30:20.259Z,27.42
2022-07-29T17:32:47.309Z,27.33
2022-07-29T17:35:33.322Z,27.33
2022-07-29T17:38:03.831Z,27.33
2022-07-29T17:40:30.920Z,27.37
2022-07-29T17:42:57.969Z,27.33
2022-07-29T17:45:25.594Z,27.32
2022-07-29T17:47:52.979Z,27.35
2022-07-29T17:50:20.266Z,27.33
2022-07-29T17:52:49.232Z,27.27
2022-07-29T17:55:16.306Z,27.23
2022-07-29T17:57:43.455Z,27.22
2022-07-29T18:00:12.827Z,27.18
2022-07-29T18:02:40.217Z,27.16
2022-07-29T18:05:08.139Z,27.16
2022-07-29T18:07:35.849Z,27.18
2022-07-29T18:10:08.650Z,27.15
2022-07-29T18:12:39.474Z,27.16
2022-07-29T18:15:07.126Z,27.13
2022-07-29T18:17:48.378Z,27.15
2022-07-29T18:20:22.199Z,27.08
2022-07-29T18:22:51.700Z,27.03
2022-07-29T18:25:19.153Z,26.99
2022-07-29T18:27:46.739Z,26.96
2022-07-29T18:30:15.357Z,26.89
2022-07-29T18:32:59.057Z,26.83
2022-07-29T18:35:32.503Z,26.74
2022-07-29T18:38:03.141Z,26.70
2022-07-29T18:40:31.166Z,26.65
2022-07-29T18:42:58.758Z,26.57
2022-07-29T18:45:28.369Z,26.57
2022-07-29T18:47:57.661Z,26.55
2022-07-29T18:50:29.191Z,26.48
2022-07-29T18:52:59.565Z,26.11
2022-07-29T18:55:27.384Z,26.28
2022-07-29T18:57:57.208Z,26.24
2022-07-29T19:00:27.291Z,26.09
2022-07-29T19:02:54.942Z,25.98
2022-07-29T19:05:23.663Z,25.81
2022-07-29T19:07:54.027Z,25.64
2022-07-29T19:10:24.843Z,25.47
2022-07-29T19:12:55.573Z,25.27
2022-07-29T19:15:22.683Z,25.14
2022-07-29T19:17:50.128Z,25.01
2022-07-29T19:20:18.854Z,24.90
2022-07-29T19:22:48.242Z,24.82
2022-07-29T19:25:16.335Z,24.82
2022-07-29T19:27:47.836Z,24.71
2022-07-29T19:30:16.254Z,24.67
2022-07-29T19:32:46.835Z,24.55
2022-07-29T19:35:26.518Z,24.50
2022-07-29T19:38:03.295Z,24.46
2022-07-29T19:40:32.869Z,24.41
2022-07-29T19:43:04.157Z,24.34
2022-07-29T19:45:54.154Z,24.35
2022-07-29T19:48:21.518Z,24.32
2022-07-29T19:50:49.074Z,24.27
2022-07-29T19:53:16.355Z,24.24
2022-07-29T19:55:47.989Z,24.25
2022-07-29T19:58:15.550Z,24.33
2022-07-29T20:00:42.665Z,24.25
2022-07-29T20:03:12.944Z,24.23
2022-07-29T20:05:43.429Z,24.33
2022-07-29T20:08:16.067Z,24.36
2022-07-29T20:10:43.521Z,24.34
2022-07-29T20:13:13.275Z,24.27
2022-07-29T20:15:41.017Z,24.21
2022-07-29T20:18:11.122Z,24.13
2022-07-29T20:20:39.139Z,24.14
2022-07-29T20:23:07.074Z,24.11
2022-07-29T20:25:39.852Z,24.09
2022-07-29T20:28:07.862Z,24.13
2022-07-29T20:30:35.077Z,24.14
2022-07-29T20:33:10.041Z,24.21
2022-07-29T20:35:37.815Z,24.17
2022-07-29T20:38:05.181Z,24.18
2022-07-29T20:40:33.087Z,24.18
2022-07-29T20:43:02.533Z,24.18
2022-07-29T20:45:29.667Z,24.15
2022-07-29T20:47:58.882Z,24.17
2022-07-29T20:50:27.409Z,24.21
2022-07-29T20:52:54.675Z,24.31
2022-07-29T20:55:21.892Z,24.34
2022-07-29T20:58:01.017Z,24.35
2022-07-29T21:00:28.776Z,24.37
2022-07-29T21:03:00.406Z,24.39
2022-07-29T21:05:29.003Z,24.39
2022-07-29T21:07:58.198Z,24.44
2022-07-29T21:10:26.386Z,24.42
2022-07-29T21:12:54.324Z,24.48
2022-07-29T21:15:22.125Z,24.52
2022-07-29T21:17:49.800Z,24.51
2022-07-29T21:20:18.159Z,24.52
2022-07-29T21:22:46.140Z,24.56
2022-07-29T21:25:13.468Z,24.55
2022-07-29T21:27:59.036Z,24.53
2022-07-29T21:30:26.563Z,24.49
2022-07-29T21:32:54.487Z,24.47
2022-07-29T21:35:45.363Z,24.47
2022-07-29T21:38:09.031Z,24.37
2022-07-29T21:40:37.828Z,24.35
2022-07-29T21:43:06.312Z,24.37
2022-07-29T21:45:36.719Z,24.35
2022-07-29T21:48:04.687Z,24.37
2022-07-29T21:50:32.056Z,24.28
2022-07-29T21:52:59.343Z,24.18
2022-07-29T21:55:26.840Z,24.14
2022-07-29T21:57:55.213Z,24.05
2022-07-29T22:00:25.663Z,23.99
2022-07-29T22:02:55.933Z,23.95
2022-07-29T22:05:23.452Z,24.00
2022-07-29T22:07:54.313Z,23.93
2022-07-29T22:10:25.972Z,23.91
2022-07-29T22:12:54.737Z,23.88
2022-07-29T22:15:22.398Z,23.87
2022-07-29T22:17:49.945Z,23.81
2022-07-29T22:20:16.975Z,23.77
2022-07-29T22:22:44.343Z,23.75
2022-07-29T22:25:12.221Z,23.69
2022-07-29T22:27:39.305Z,23.63
2022-07-29T22:30:08.651Z,23.61
2022-07-29T22:32:36.206Z,23.59
2022-07-29T22:35:03.881Z,23.56
2022-07-29T22:37:31.196Z,23.58
2022-07-29T22:39:58.463Z,23.58
2022-07-29T22:42:25.636Z,23.56
2022-07-29T22:44:52.575Z,23.51
2022-07-29T22:47:46.080Z,23.52
2022-07-29T22:50:07.398Z,23.52
2022-07-29T22:52:34.760Z,23.53
2022-07-29T22:55:02.168Z,23.49
2022-07-29T22:57:29.718Z,23.49
2022-07-29T22:59:57.042Z,23.46
2022-07-29T23:02:23.967Z,23.46
2022-07-29T23:04:54.999Z,23.44
2022-07-29T23:07:35.271Z,23.10
2022-07-29T23:10:02.415Z,23.40
2022-07-29T23:12:34.436Z,23.40
2022-07-29T23:15:04.435Z,23.44
2022-07-29T23:17:32.079Z,23.43
2022-07-29T23:20:05.771Z,23.39
2022-07-29T23:22:32.676Z,23.42
2022-07-29T23:24:59.577Z,23.41
2022-07-29T23:27:26.810Z,23.36
2022-07-29T23:29:53.855Z,23.35
2022-07-29T23:32:21.054Z,23.35
2022-07-29T23:34:48.347Z,23.36
2022-07-29T23:37:15.253Z,23.35
2022-07-29T23:39:42.284Z,23.33
2022-07-29T23:42:10.377Z,23.30
2022-07-29T23:44:37.545Z,23.31
2022-07-29T23:47:05.087Z,23.24
2022-07-29T23:49:32.315Z,23.24
2022-07-29T23:51:59.263Z,23.20
2022-07-29T23:54:26.205Z,23.20
2022-07-29T23:56:53.746Z,23.20
2022-07-29T23:59:20.768Z,23.22
